Time;durP1;ratioP1;P1;durP2;ratioP2;P2;SDS_P1;SDS_P2;PMS_P1;PMS_P2;Temp;Humidity;BMP_temperature;BMP_pressure;BME280_temperature;BME280_humidity;BME280_pressure;Samples;Min_cycle;Max_cycle;Signal;HPM_P1;HPM_P2
2021/12/22 00:00:12;;;;;;;96.50;16.87;;;;;;;-1.62;70.38;102086.13;685541;28;1195;-84
2021/12/22 00:00:32;;;;;;;56.90;14.00;;;;;;;-1.55;70.18;102093.66;682928;29;836;-84
2021/12/22 00:00:53;;;;;;;39.53;12.77;;;;;;;-1.69;70.12;102069.22;680353;29;828;-84
2021/12/22 00:01:14;;;;;;;43.22;12.85;;;;;;;-1.63;70.37;102079.19;687221;28;1402;-84
2021/12/22 00:01:35;;;;;;;34.97;12.20;;;;;;;-1.62;70.35;102078.44;688284;28;799;-84
2021/12/22 00:01:58;;;;;;;33.40;12.20;;;;;;;-1.56;70.69;102081.59;688190;28;925;-84
2021/12/22 00:02:19;;;;;;;37.80;12.63;;;;;;;-1.60;70.60;102075.28;685433;28;1160;-84
2021/12/22 00:02:46;;;;;;;43.75;13.20;;;;;;;-1.57;70.47;102077.19;688317;28;702;-84
2021/12/22 00:03:09;;;;;;;49.63;13.65;;;;;;;-1.57;70.51;102080.69;682704;28;1123;-84
2021/12/22 00:03:29;;;;;;;50.72;13.43;;;;;;;-1.58;70.41;102081.44;683761;28;863;-84
2021/12/22 00:03:50;;;;;;;44.50;13.37;;;;;;;-1.62;70.32;102076.75;682990;28;1240;-84
2021/12/22 00:04:11;;;;;;;47.40;13.05;;;;;;;-1.61;70.34;102070.88;682607;29;1441;-84
2021/12/22 00:04:33;;;;;;;45.72;13.48;;;;;;;-1.60;70.37;102084.59;688281;28;1060;-84
2021/12/22 00:04:54;;;;;;;64.63;14.10;;;;;;;-1.58;70.30;102088.22;688241;28;1354;-84
2021/12/22 00:05:19;;;;;;;60.42;14.43;;;;;;;-1.55;70.37;102096.22;687837;28;1163;-83
2021/12/22 00:05:45;;;;;;;66.15;14.15;;;;;;;-1.59;70.46;102084.75;685258;28;1383;-84
2021/12/22 00:06:05;;;;;;;64.13;14.45;;;;;;;-1.63;70.44;102090.31;682046;29;1382;-84
2021/12/22 00:06:27;;;;;;;86.85;16.15;;;;;;;-1.58;70.59;102095.88;685617;28;1325;-83
2021/12/22 00:06:48;;;;;;;84.07;15.00;;;;;;;-1.68;70.16;102079.63;685363;28;1305;-84
2021/12/22 00:07:10;;;;;;;72.97;13.55;;;;;;;-1.72;70.61;102076.59;686462;28;1231;-84
2021/12/22 00:07:30;;;;;;;55.80;13.25;;;;;;;-1.75;70.24;102072.09;688253;28;1221;-84
2021/12/22 00:07:51;;;;;;;46.00;13.43;;;;;;;-1.66;70.76;102090.03;685602;28;918;-84
2021/12/22 00:08:13;;;;;;;37.58;12.65;;;;;;;-1.64;70.52;102101.31;687959;28;1165;-84
2021/12/22 00:08:34;;;;;;;31.45;11.07;;;;;;;-1.73;70.44;102087.59;685470;28;1219;-83
2021/12/22 00:08:55;;;;;;;31.55;10.93;;;;;;;-1.76;70.41;102089.84;687938;28;1535;-84
2021/12/22 00:09:15;;;;;;;30.80;11.00;;;;;;;-1.65;70.66;102103.72;686979;28;1143;-84
2021/12/22 00:09:36;;;;;;;35.85;11.30;;;;;;;-1.75;70.55;102079.75;686429;28;1310;-84
2021/12/22 00:09:57;;;;;;;36.95;11.73;;;;;;;-1.77;70.85;102078.72;683966;28;1532;-83
2021/12/22 00:10:19;;;;;;;40.83;11.45;;;;;;;-1.76;70.69;102082.16;687651;28;1134;-84
2021/12/22 00:10:44;;;;;;;56.03;11.95;;;;;;;-1.73;70.42;102088.50;685467;28;1243;-83
2021/12/22 00:11:05;;;;;;;53.42;11.88;;;;;;;-1.70;70.89;102096.50;688590;28;1333;-84
2021/12/22 00:11:26;;;;;;;49.43;12.00;;;;;;;-1.64;70.76;102101.31;683894;28;1408;-84
2021/12/22 00:11:48;;;;;;;50.38;12.40;;;;;;;-1.73;70.57;102088.50;684498;28;1051;-84
2021/12/22 00:12:10;;;;;;;50.92;12.70;;;;;;;-1.73;70.73;102079.94;686959;28;1174;-84
2021/12/22 00:12:30;;;;;;;43.53;12.50;;;;;;;-1.77;70.24;102086.41;685475;28;1125;-83
2021/12/22 00:12:52;;;;;;;43.95;12.00;;;;;;;-1.68;70.64;102105.22;682928;29;1057;-84
2021/12/22 00:13:13;;;;;;;41.15;11.98;;;;;;;-1.76;70.58;102083.09;684397;28;1919;-84
2021/12/22 00:13:33;;;;;;;35.58;11.73;;;;;;;-1.65;70.63;102106.28;677525;28;1173;-83
2021/12/22 00:13:54;;;;;;;27.90;11.33;;;;;;;-1.76;70.72;102083.09;682862;29;1166;-84
2021/12/22 00:14:14;;;;;;;29.08;11.60;;;;;;;-1.76;70.58;102088.19;689829;28;1121;-84
2021/12/22 00:14:35;;;;;;;54.42;13.50;;;;;;;-1.75;70.65;102084.00;688116;28;1275;-84
2021/12/22 00:14:56;;;;;;;71.57;13.80;;;;;;;-1.75;70.37;102084.88;686154;28;1199;-84
2021/12/22 00:15:17;;;;;;;70.57;12.93;;;;;;;-1.71;70.85;102092.13;682878;28;1171;-84
2021/12/22 00:15:38;;;;;;;46.20;11.07;;;;;;;-1.63;70.60;102092.00;682820;29;1449;-84
2021/12/22 00:15:59;;;;;;;38.40;10.90;;;;;;;-1.67;70.28;102077.97;685437;28;1160;-84
2021/12/22 00:16:19;;;;;;;37.47;11.55;;;;;;;-1.65;70.45;102070.44;685201;28;1120;-84
2021/12/22 00:16:40;;;;;;;35.90;11.67;;;;;;;-1.60;70.29;102079.47;685533;28;1508;-83
2021/12/22 00:17:01;;;;;;;45.60;11.57;;;;;;;-1.44;70.10;102103.28;690761;28;1208;-83
2021/12/22 00:17:21;;;;;;;56.03;11.32;;;;;;;-1.49;69.96;102094.22;685604;28;779;-84
2021/12/22 00:17:43;;;;;;;54.47;11.40;;;;;;;-1.54;70.24;102082.66;682820;29;843;-84
2021/12/22 00:18:03;;;;;;;38.53;11.15;;;;;;;-1.62;69.84;102075.88;685250;28;1123;-85
2021/12/22 00:18:24;;;;;;;29.75;11.00;;;;;;;-1.62;70.16;102086.13;688153;28;1141;-84
2021/12/22 00:18:45;;;;;;;28.85;10.90;;;;;;;-1.65;70.00;102081.59;682932;28;1035;-84
2021/12/22 00:19:05;;;;;;;28.57;11.23;;;;;;;-1.64;70.29;102087.59;684991;28;1721;-83
2021/12/22 00:19:26;;;;;;;34.22;12.40;;;;;;;-1.60;70.13;102087.16;687638;28;883;-84
2021/12/22 00:19:46;;;;;;;30.77;12.27;;;;;;;-1.66;70.22;102077.22;682811;28;1199;-83
2021/12/22 00:20:09;;;;;;;30.10;12.10;;;;;;;-1.57;70.16;102095.13;688227;28;1196;-84
2021/12/22 00:20:31;;;;;;;23.15;11.23;;;;;;;-1.69;70.47;102079.47;687972;28;1213;-84
2021/12/22 00:20:51;;;;;;;25.30;11.05;;;;;;;-1.68;70.21;102091.53;682926;28;1331;-84
2021/12/22 00:21:12;;;;;;;23.60;10.33;;;;;;;-1.62;70.42;102096.34;681950;28;1150;-84
2021/12/22 00:21:32;;;;;;;27.88;10.70;;;;;;;-1.70;70.42;102083.69;682835;28;1295;-84
2021/12/22 00:21:53;;;;;;;33.45;10.95;;;;;;;-1.71;70.21;102075.84;685463;28;875;-84
2021/12/22 00:22:13;;;;;;;40.43;11.97;;;;;;;-1.71;70.52;102080.97;682728;28;1160;-84
2021/12/22 00:22:34;;;;;;;53.90;13.30;;;;;;;-1.74;70.40;102076.44;682917;29;798;-84
2021/12/22 00:22:55;;;;;;;42.83;13.00;;;;;;;-1.68;70.67;102078.72;680167;28;1129;-84
2021/12/22 00:23:16;;;;;;;47.10;13.23;;;;;;;-1.69;70.50;102082.94;688025;28;1228;-84
2021/12/22 00:23:37;;;;;;;32.47;11.70;;;;;;;-1.69;70.35;102080.38;688148;28;792;-84
2021/12/22 00:23:58;;;;;;;35.90;11.95;;;;;;;-1.70;70.55;102086.25;685918;28;1341;-84
2021/12/22 00:24:18;;;;;;;30.88;11.68;;;;;;;-1.75;70.29;102079.75;691883;28;1253;-84
2021/12/22 00:24:40;;;;;;;45.92;12.65;;;;;;;-1.73;70.24;102078.25;685454;28;1276;-84
2021/12/22 00:25:01;;;;;;;45.28;12.40;;;;;;;-1.68;70.34;102092.41;685220;28;1071;-84
2021/12/22 00:25:25;;;;;;;32.22;12.13;;;;;;;-1.73;70.50;102082.47;677514;29;1351;-84
2021/12/22 00:25:46;;;;;;;25.90;11.48;;;;;;;-1.79;70.52;102082.78;681113;28;2815;-84
2021/12/22 00:26:07;;;;;;;28.13;11.47;;;;;;;-1.74;70.46;102086.69;684085;28;2639;-84
2021/12/22 00:26:27;;;;;;;32.08;11.60;;;;;;;-1.79;70.79;102087.91;683160;28;1003;-84
2021/12/22 00:26:48;;;;;;;31.75;11.50;;;;;;;-1.78;70.77;102089.72;682373;28;1183;-84
2021/12/22 00:27:09;;;;;;;32.13;11.80;;;;;;;-1.81;70.84;102084.25;684708;28;1166;-84
2021/12/22 00:27:29;;;;;;;29.75;11.60;;;;;;;-1.78;70.84;102084.59;683471;28;2528;-83
2021/12/22 00:27:50;;;;;;;33.50;11.60;;;;;;;-1.69;70.79;102103.41;687968;28;1342;-84
2021/12/22 00:28:11;;;;;;;31.08;11.00;;;;;;;-1.74;70.67;102085.81;682184;28;1272;-84
2021/12/22 00:28:33;;;;;;;37.15;11.35;;;;;;;-1.72;70.54;102090.31;682718;29;890;-84
2021/12/22 00:28:56;;;;;;;28.13;11.80;;;;;;;-1.67;70.82;102104.47;683688;28;1365;-84
2021/12/22 00:29:17;;;;;;;29.58;12.38;;;;;;;-1.75;70.75;102084.00;680782;28;1267;-84
2021/12/22 00:29:38;;;;;;;30.75;12.50;;;;;;;-1.74;70.70;102090.91;679811;29;1096;-84
2021/12/22 00:29:59;;;;;;;33.25;12.27;;;;;;;-1.77;71.00;102086.41;685562;28;938;-84
2021/12/22 00:30:19;;;;;;;31.58;11.65;;;;;;;-1.73;70.91;102087.59;685008;28;1210;-83
2021/12/22 00:30:41;;;;;;;32.28;11.52;;;;;;;-1.75;71.09;102092.56;690894;28;900;-83
2021/12/22 00:31:09;;;;;;;32.30;11.60;;;;;;;-1.75;71.22;102087.44;687885;28;1115;-84
2021/12/22 00:31:30;;;;;;;21.23;11.30;;;;;;;-1.76;71.12;102082.16;685404;28;921;-85
2021/12/22 00:32:14;;;;;;;29.17;11.68;;;;;;;-1.66;70.74;102084.91;685546;28;1392;-84
2021/12/22 00:32:36;;;;;;;32.53;11.88;;;;;;;-1.77;70.91;102073.59;684915;28;1140;-84
2021/12/22 00:33:03;;;;;;;39.67;12.85;;;;;;;-1.79;70.88;102087.00;683596;28;1340;-84
2021/12/22 00:33:23;;;;;;;41.55;14.15;;;;;;;-1.85;70.52;102083.06;680159;28;1981;-84
2021/12/22 00:33:49;;;;;;;49.53;14.35;;;;;;;-1.86;70.92;102072.69;685336;28;1121;-84
2021/12/22 00:34:16;;;;;;;61.20;13.30;;;;;;;-1.83;70.76;102079.03;685912;28;1330;-84
2021/12/22 00:34:47;;;;;;;76.25;12.98;;;;;;;-1.88;71.11;102080.22;683015;28;1107;-84
2021/12/22 00:35:09;;;;;;;49.92;11.63;;;;;;;-1.88;70.81;102087.88;683674;28;1215;-84
2021/12/22 00:35:37;;;;;;;30.17;11.10;;;;;;;-1.88;70.98;102087.88;684816;28;840;-84
2021/12/22 00:35:58;;;;;;;26.98;11.68;;;;;;;-1.88;70.99;102084.41;682665;28;1261;-84
2021/12/22 00:36:23;;;;;;;26.98;11.18;;;;;;;-1.82;70.87;102092.69;682474;28;1241;-84
2021/12/22 00:36:44;;;;;;;23.27;11.20;;;;;;;-1.88;70.95;102081.84;685505;28;1107;-84
2021/12/22 00:37:05;;;;;;;25.42;11.30;;;;;;;-1.83;71.07;102090.91;682484;28;1256;-84
2021/12/22 00:37:29;;;;;;;23.23;11.20;;;;;;;-1.86;71.05;102083.81;679865;29;1368;-83
2021/12/22 00:37:50;;;;;;;28.35;11.30;;;;;;;-1.80;71.11;102093.78;682891;29;829;-84
2021/12/22 00:38:16;;;;;;;38.70;12.00;;;;;;;-1.83;71.00;102083.22;682167;28;1236;-85
2021/12/22 00:38:37;;;;;;;43.15;13.32;;;;;;;-1.83;71.10;102080.66;684487;28;1127;-84
2021/12/22 00:38:58;;;;;;;32.72;12.52;;;;;;;-1.82;70.96;102087.59;685180;28;1298;-83
2021/12/22 00:39:18;;;;;;;22.83;12.02;;;;;;;-1.68;71.04;102107.78;681933;29;1159;-84
2021/12/22 00:39:39;;;;;;;20.37;11.30;;;;;;;-1.75;71.19;102097.69;685461;28;1260;-84
2021/12/22 00:40:01;;;;;;;34.22;12.32;;;;;;;-1.73;70.88;102093.63;685422;28;985;-84
2021/12/22 00:40:21;;;;;;;49.50;13.27;;;;;;;-1.67;70.93;102104.47;685304;28;1257;-84
2021/12/22 00:40:43;;;;;;;53.27;13.20;;;;;;;-1.74;70.92;102096.03;680119;28;1295;-84
2021/12/22 00:41:05;;;;;;;41.70;12.40;;;;;;;-1.69;70.83;102111.09;683005;28;1198;-84
2021/12/22 00:41:25;;;;;;;32.88;11.95;;;;;;;-1.74;70.80;102102.03;685435;28;1217;-85
2021/12/22 00:41:47;;;;;;;28.60;11.80;;;;;;;-1.77;70.95;102091.50;693609;28;857;-84
2021/12/22 00:42:21;;;;;;;27.52;11.23;;;;;;;-1.72;70.95;102095.44;687083;28;1150;-84
2021/12/22 00:42:41;;;;;;;32.83;12.40;;;;;;;-1.74;70.76;102094.38;683577;28;1531;-83
2021/12/22 00:43:02;;;;;;;27.70;12.50;;;;;;;-1.73;70.76;102093.63;687480;28;1278;-84
2021/12/22 00:43:23;;;;;;;25.77;12.27;;;;;;;-1.75;71.02;102089.13;685410;28;1156;-84
2021/12/22 00:43:43;;;;;;;23.08;11.73;;;;;;;-1.73;70.92;102103.84;684921;28;1096;-84
2021/12/22 00:44:05;;;;;;;24.95;12.07;;;;;;;-1.78;71.08;102086.22;680352;29;1238;-84
2021/12/22 00:44:26;;;;;;;31.52;12.13;;;;;;;-1.74;70.88;102090.91;682735;28;819;-84
2021/12/22 00:44:51;;;;;;;27.17;11.45;;;;;;;-1.78;70.95;102088.78;685618;28;795;-84
2021/12/22 00:45:11;;;;;;;23.64;11.26;;;;;;;-1.74;70.71;102091.81;687815;28;1229;-84
2021/12/22 00:45:34;;;;;;;27.67;11.13;;;;;;;-1.73;70.87;102093.63;690341;28;1180;-84
2021/12/22 00:45:56;;;;;;;42.20;12.50;;;;;;;-1.77;70.86;102080.34;682910;28;1393;-84
2021/12/22 00:46:16;;;;;;;64.97;14.15;;;;;;;-1.78;70.73;102083.69;680323;28;1296;-84
2021/12/22 00:46:37;;;;;;;66.57;14.65;;;;;;;-1.77;70.78;102086.41;682877;28;803;-84
2021/12/22 00:46:58;;;;;;;83.22;13.57;;;;;;;-1.82;70.89;102080.81;682775;29;941;-84
2021/12/22 00:47:21;;;;;;;65.13;12.07;;;;;;;-1.81;70.87;102091.94;682923;28;1391;-83
2021/12/22 00:47:42;;;;;;;50.45;11.10;;;;;;;-1.85;70.66;102085.63;682840;28;1285;-84
2021/12/22 00:48:04;;;;;;;22.20;10.77;;;;;;;-1.84;70.77;102084.91;682313;28;1605;-84
2021/12/22 00:48:24;;;;;;;32.35;10.80;;;;;;;-1.82;70.83;102087.59;682786;28;1132;-84
2021/12/22 00:48:45;;;;;;;33.63;11.00;;;;;;;-1.84;70.65;102084.91;685337;28;1391;-84
2021/12/22 00:49:05;;;;;;;29.80;10.80;;;;;;;-1.91;70.97;102081.56;687263;28;1292;-84
2021/12/22 00:49:26;;;;;;;26.40;11.30;;;;;;;-1.88;70.69;102086.97;690083;28;1698;-84
2021/12/22 00:49:47;;;;;;;39.45;11.73;;;;;;;-1.89;70.79;102085.16;688136;28;1538;-84
2021/12/22 00:50:08;;;;;;;62.92;12.02;;;;;;;-1.90;70.86;102079.16;688003;28;1140;-84
2021/12/22 00:50:30;;;;;;;86.15;12.75;;;;;;;-1.87;70.60;102084.56;685089;28;1736;-84
2021/12/22 00:50:50;;;;;;;91.88;14.18;;;;;;;-1.90;70.80;102084.28;682777;28;1112;-83
2021/12/22 00:51:11;;;;;;;76.95;13.73;;;;;;;-1.92;70.59;102085.75;687932;28;1221;-84
2021/12/22 00:51:31;;;;;;;52.30;12.70;;;;;;;-1.98;70.63;102075.81;688112;28;1070;-84
2021/12/22 00:51:52;;;;;;;43.03;12.30;;;;;;;-1.90;70.64;102089.41;690861;28;967;-84
2021/12/22 00:52:13;;;;;;;51.47;13.85;;;;;;;-1.88;70.54;102102.31;686961;28;1078;-84
2021/12/22 00:52:33;;;;;;;60.15;14.05;;;;;;;-1.91;70.74;102091.78;687487;28;1241;-84
2021/12/22 00:52:54;;;;;;;58.70;13.73;;;;;;;-2.00;70.95;102071.28;691562;28;1492;-83
2021/12/22 00:53:15;;;;;;;55.03;12.90;;;;;;;-1.98;70.65;102086.06;690444;28;1965;-83
2021/12/22 00:53:35;;;;;;;40.15;12.15;;;;;;;-1.99;70.92;102086.81;688140;28;865;-84
2021/12/22 00:53:56;;;;;;;31.58;11.68;;;;;;;-2.05;70.90;102078.50;680117;29;1030;-84
2021/12/22 00:54:17;;;;;;;20.95;11.32;;;;;;;-2.01;70.95;102080.63;690554;28;1192;-83
2021/12/22 00:54:37;;;;;;;31.67;12.00;;;;;;;-1.99;70.92;102081.69;688144;28;775;-84
2021/12/22 00:54:58;;;;;;;52.60;13.65;;;;;;;-1.98;70.86;102080.06;690969;28;1064;-84
2021/12/22 00:55:20;;;;;;;67.70;13.97;;;;;;;-1.96;70.60;102082.00;685897;28;1200;-84
2021/12/22 00:55:41;;;;;;;56.40;13.02;;;;;;;-1.96;71.13;102078.53;685478;28;1200;-84
2021/12/22 00:56:03;;;;;;;53.05;13.00;;;;;;;-1.97;70.94;102079.28;682788;28;1234;-84
2021/12/22 00:56:24;;;;;;;69.70;14.55;;;;;;;-1.98;70.66;102080.94;685041;28;1197;-84
2021/12/22 00:56:44;;;;;;;80.38;15.05;;;;;;;-2.03;70.75;102074.47;685158;28;1134;-84
2021/12/22 00:57:06;;;;;;;79.57;14.07;;;;;;;-1.95;70.53;102096.63;682449;28;1112;-84
2021/12/22 00:57:27;;;;;;;56.80;11.73;;;;;;;-1.99;70.88;102089.38;685479;28;759;-84
2021/12/22 00:57:49;;;;;;;45.50;11.45;;;;;;;-1.97;70.63;102092.97;688156;28;914;-84
2021/12/22 00:58:09;;;;;;;29.33;11.35;;;;;;;-2.00;70.53;102089.19;686073;28;1918;-83
2021/12/22 00:58:30;;;;;;;32.20;11.95;;;;;;;-2.01;70.60;102087.41;681424;28;1184;-84
2021/12/22 00:58:51;;;;;;;38.08;12.43;;;;;;;-2.04;71.05;102075.19;680166;29;1164;-84
2021/12/22 00:59:11;;;;;;;40.42;12.20;;;;;;;-2.01;70.89;102092.50;683657;28;1096;-84
2021/12/22 00:59:33;;;;;;;35.60;11.70;;;;;;;-2.04;71.03;102084.53;687596;28;1380;-84
2021/12/22 00:59:54;;;;;;;32.45;11.50;;;;;;;-2.02;70.62;102086.50;688199;28;894;-84
2021/12/22 01:00:17;;;;;;;50.67;12.07;;;;;;;-2.01;70.98;102085.75;687563;28;1138;-84
2021/12/22 01:00:37;;;;;;;60.80;12.82;;;;;;;-1.95;70.82;102091.50;685482;28;967;-84
2021/12/22 01:00:59;;;;;;;57.95;13.00;;;;;;;-2.03;70.93;102077.03;685371;28;1134;-84
2021/12/22 01:01:19;;;;;;;43.55;12.45;;;;;;;-1.91;70.94;102094.34;690560;28;1243;-84
2021/12/22 01:01:40;;;;;;;31.27;11.87;;;;;;;-2.02;70.86;102081.41;687959;28;1178;-83
2021/12/22 01:02:04;;;;;;;28.98;12.13;;;;;;;-1.96;70.82;102096.44;682877;28;1116;-84
2021/12/22 01:02:25;;;;;;;31.23;12.13;;;;;;;-2.01;71.05;102074.59;680164;29;884;-84
2021/12/22 01:02:46;;;;;;;27.17;11.98;;;;;;;-2.01;70.95;102080.63;679996;29;1686;-84
2021/12/22 01:03:06;;;;;;;35.70;11.82;;;;;;;-2.01;70.77;102082.28;686213;28;1237;-85
2021/12/22 01:03:27;;;;;;;40.75;12.10;;;;;;;-1.97;71.06;102092.97;682481;28;1064;-84
2021/12/22 01:03:48;;;;;;;45.10;11.90;;;;;;;-1.97;70.69;102087.84;680140;28;1273;-84
2021/12/22 01:04:08;;;;;;;39.90;11.60;;;;;;;-1.96;70.47;102091.34;687806;28;1195;-84
2021/12/22 01:04:29;;;;;;;31.67;11.02;;;;;;;-1.90;70.51;102108.94;689005;28;1401;-84
2021/12/22 01:04:49;;;;;;;29.53;11.20;;;;;;;-2.00;71.13;102086.63;690817;28;798;-84
2021/12/22 01:05:15;;;;;;;28.27;11.30;;;;;;;-1.89;70.95;102098.88;687871;28;1099;-84
2021/12/22 01:05:35;;;;;;;40.58;11.80;;;;;;;-1.93;70.92;102089.06;685055;28;1590;-84
2021/12/22 01:05:56;;;;;;;44.60;12.03;;;;;;;-1.84;70.76;102104.44;686916;28;1167;-84
2021/12/22 01:06:16;;;;;;;49.88;11.57;;;;;;;-1.95;70.52;102083.81;687426;28;1566;-84
2021/12/22 01:06:37;;;;;;;52.30;11.60;;;;;;;-1.91;70.43;102097.81;686631;28;753;-84
2021/12/22 01:06:58;;;;;;;50.10;11.25;;;;;;;-1.88;70.70;102089.53;682639;28;1029;-84
2021/12/22 01:07:19;;;;;;;30.80;11.10;;;;;;;-1.89;70.75;102080.97;682341;29;1263;-84
2021/12/22 01:07:39;;;;;;;31.87;11.33;;;;;;;-1.90;70.45;102083.34;681264;28;1245;-84
2021/12/22 01:08:00;;;;;;;30.25;11.27;;;;;;;-1.80;70.68;102098.91;682607;28;1168;-84
2021/12/22 01:08:21;;;;;;;36.25;11.75;;;;;;;-1.79;70.37;102099.78;682810;29;1167;-84
2021/12/22 01:08:42;;;;;;;24.10;11.30;;;;;;;-1.83;70.57;102085.78;685295;28;1296;-84
2021/12/22 01:09:04;;;;;;;26.60;12.20;;;;;;;-1.85;70.42;102087.28;682658;28;1481;-84
2021/12/22 01:09:25;;;;;;;25.13;11.75;;;;;;;-1.83;70.21;102083.22;684785;28;1236;-84
2021/12/22 01:09:46;;;;;;;25.50;11.20;;;;;;;-1.74;70.18;102096.94;684523;28;851;-84
2021/12/22 01:10:07;;;;;;;25.88;10.77;;;;;;;-1.69;70.41;102098.31;687925;28;1208;-84
2021/12/22 01:10:30;;;;;;;30.85;11.10;;;;;;;-1.70;70.11;102098.13;685447;28;1240;-84
2021/12/22 01:10:50;;;;;;;37.25;11.20;;;;;;;-1.70;70.34;102093.94;685538;28;882;-83
2021/12/22 01:11:11;;;;;;;43.45;11.80;;;;;;;-1.68;70.11;102094.09;682606;28;1064;-85
2021/12/22 01:11:31;;;;;;;48.83;12.67;;;;;;;-1.65;70.09;102102.06;685316;28;1646;-84
2021/12/22 01:11:52;;;;;;;38.77;11.67;;;;;;;-1.60;70.33;102107.63;685404;28;1235;-84
2021/12/22 01:12:13;;;;;;;31.98;10.80;;;;;;;-1.73;70.15;102087.59;684967;28;1369;-84
2021/12/22 01:12:34;;;;;;;24.48;10.10;;;;;;;-1.68;69.96;102100.09;688043;28;1142;-83
2021/12/22 01:12:57;;;;;;;37.90;10.88;;;;;;;-1.73;70.18;102102.97;690537;28;1289;-84
2021/12/22 01:13:18;;;;;;;40.20;11.38;;;;;;;-1.77;70.02;102091.50;684708;28;1922;-84
2021/12/22 01:13:38;;;;;;;45.03;11.20;;;;;;;-1.85;70.31;102080.50;688106;28;768;-84
2021/12/22 01:13:59;;;;;;;50.85;11.60;;;;;;;-1.78;69.76;102093.91;690592;28;1531;-84
2021/12/22 01:14:21;;;;;;;45.90;11.00;;;;;;;-1.84;70.02;102084.91;688065;28;1399;-84
2021/12/22 01:14:42;;;;;;;40.70;11.80;;;;;;;-1.79;69.80;102089.53;682355;28;1181;-84
2021/12/22 01:15:04;;;;;;;34.13;11.70;;;;;;;-1.71;69.89;102117.72;677606;29;1161;-84
2021/12/22 01:15:27;;;;;;;35.03;11.50;;;;;;;-1.70;70.02;102114.41;682621;28;1372;-84
2021/12/22 01:15:48;;;;;;;27.38;10.63;;;;;;;-1.81;69.71;102090.31;688074;28;1962;-84
2021/12/22 01:16:08;;;;;;;28.08;10.05;;;;;;;-1.76;69.86;102105.19;683067;28;1363;-84
2021/12/22 01:16:29;;;;;;;23.05;10.18;;;;;;;-1.78;69.88;102102.50;682770;28;1053;-84
2021/12/22 01:16:54;;;;;;;20.85;10.02;;;;;;;-1.83;70.37;102090.91;682754;29;866;-84
2021/12/22 01:17:16;;;;;;;19.35;10.20;;;;;;;-1.82;70.15;102097.81;685233;28;1108;-84
2021/12/22 01:17:41;;;;;;;20.83;10.68;;;;;;;-1.78;70.08;102109.28;682780;29;766;-84
2021/12/22 01:18:13;;;;;;;26.52;11.32;;;;;;;-1.87;69.88;102099.03;682685;28;1099;-84
2021/12/22 01:18:35;;;;;;;38.78;12.43;;;;;;;-1.90;69.94;102091.03;682670;29;822;-84
2021/12/22 01:19:00;;;;;;;47.50;12.07;;;;;;;-1.78;70.18;102110.19;682761;28;1635;-85
2021/12/22 01:19:32;;;;;;;37.58;10.43;;;;;;;-1.87;70.01;102091.38;682166;28;1265;-84
2021/12/22 01:20:02;;;;;;;39.47;10.30;;;;;;;-1.77;70.01;102112.00;685182;28;1600;-84
2021/12/22 01:20:29;;;;;;;42.03;11.80;;;;;;;-1.84;69.99;102083.97;682726;28;1403;-84
2021/12/22 01:21:39;;;;;;;37.33;11.40;;;;;;;-1.90;69.83;102094.50;682501;29;856;-84
2021/12/22 01:22:09;;;;;;;32.90;10.45;;;;;;;-1.82;69.82;102113.19;680009;29;1041;-84
2021/12/22 01:22:46;;;;;;;25.70;10.70;;;;;;;-1.92;69.78;102095.09;685369;28;842;-84
2021/12/22 01:23:07;;;;;;;27.65;10.32;;;;;;;-1.91;69.69;102099.47;685645;28;1989;-84
2021/12/22 01:23:33;;;;;;;28.45;9.88;;;;;;;-1.87;69.91;102101.59;682731;29;831;-84
2021/12/22 01:24:02;;;;;;;26.52;10.50;;;;;;;-1.83;69.82;102106.25;685367;28;1359;-84
2021/12/22 01:24:31;;;;;;;25.55;10.70;;;;;;;-1.86;69.90;102103.41;685198;28;1219;-84
2021/12/22 01:25:04;;;;;;;26.83;10.85;;;;;;;-1.85;69.95;102103.53;685085;28;1596;-84
2021/12/22 01:25:24;;;;;;;48.00;12.63;;;;;;;-1.96;69.81;102081.09;682627;29;1134;-83
2021/12/22 01:25:47;;;;;;;62.40;13.43;;;;;;;-1.87;69.93;102097.38;685399;28;1232;-83
2021/12/22 01:26:08;;;;;;;77.95;13.80;;;;;;;-1.93;69.74;102090.75;684423;28;1047;-84
2021/12/22 01:26:33;;;;;;;71.07;12.50;;;;;;;-1.91;69.71;102084.13;688022;28;1228;-84
2021/12/22 01:27:03;;;;;;;59.17;11.90;;;;;;;-1.95;69.95;102091.50;685403;28;872;-84
2021/12/22 01:27:26;;;;;;;61.03;12.38;;;;;;;-1.99;69.93;102083.38;680082;29;832;-85
2021/12/22 01:27:47;;;;;;;45.85;11.50;;;;;;;-1.99;70.02;102086.81;687991;28;1368;-84
2021/12/22 01:28:08;;;;;;;42.40;12.23;;;;;;;-1.98;69.79;102085.16;688909;28;1249;-84
2021/12/22 01:28:29;;;;;;;45.78;11.85;;;;;;;-1.96;69.99;102092.25;688016;28;873;-84
2021/12/22 01:28:49;;;;;;;49.70;11.70;;;;;;;-1.91;70.05;102091.78;685335;28;1062;-84
2021/12/22 01:29:11;;;;;;;45.80;10.83;;;;;;;-2.00;70.07;102079.88;689248;28;1192;-84
2021/12/22 01:29:33;;;;;;;35.55;10.57;;;;;;;-1.89;69.81;102095.41;687812;28;1101;-83
2021/12/22 01:29:54;;;;;;;31.08;11.02;;;;;;;-1.95;70.11;102085.47;684956;28;1483;-84
2021/12/22 01:30:20;;;;;;;41.75;11.88;;;;;;;-2.01;69.91;102078.09;685074;28;1394;-84
2021/12/22 01:30:44;;;;;;;45.40;11.88;;;;;;;-1.97;70.13;102097.19;682532;29;1270;-84
2021/12/22 01:31:04;;;;;;;38.38;10.88;;;;;;;-1.97;70.15;102087.84;682527;28;1121;-84
2021/12/22 01:31:25;;;;;;;41.67;10.77;;;;;;;-1.95;69.74;102081.25;682716;28;1132;-84
2021/12/22 01:31:46;;;;;;;43.38;11.57;;;;;;;-1.98;70.10;102090.28;685370;28;1205;-84
2021/12/22 01:32:09;;;;;;;55.60;12.25;;;;;;;-1.90;69.79;102083.34;686083;28;1239;-84
2021/12/22 01:32:30;;;;;;;63.75;12.35;;;;;;;-1.85;69.82;102090.72;686207;28;1589;-84
2021/12/22 01:32:53;;;;;;;63.53;11.85;;;;;;;-1.90;69.82;102084.28;682463;28;1038;-84
2021/12/22 01:33:15;;;;;;;57.60;13.13;;;;;;;-1.95;69.64;102076.16;684260;28;1978;-84
2021/12/22 01:33:36;;;;;;;44.15;12.90;;;;;;;-1.88;69.99;102085.31;690797;28;768;-84
2021/12/22 01:33:56;;;;;;;36.60;11.90;;;;;;;-1.86;70.04;102083.81;688053;28;893;-84
2021/12/22 01:34:17;;;;;;;39.13;12.13;;;;;;;-1.79;69.57;102087.91;685101;28;1330;-84
2021/12/22 01:34:38;;;;;;;35.78;11.60;;;;;;;-1.70;69.56;102104.16;682712;28;1087;-84
2021/12/22 01:34:59;;;;;;;42.17;11.90;;;;;;;-1.68;69.51;102097.53;682592;28;1010;-84
2021/12/22 01:35:21;;;;;;;37.28;10.82;;;;;;;-1.79;69.77;102077.66;684803;28;1282;-85
2021/12/22 01:35:43;;;;;;;43.47;11.45;;;;;;;-1.71;69.47;102094.69;683434;28;812;-84
2021/12/22 01:36:04;;;;;;;36.25;11.48;;;;;;;-1.69;69.40;102085.50;685061;28;1240;-85
2021/12/22 01:36:25;;;;;;;43.33;12.38;;;;;;;-1.67;69.38;102083.09;685342;28;759;-84
2021/12/22 01:36:46;;;;;;;44.20;12.20;;;;;;;-1.63;69.29;102097.09;685231;28;824;-84
2021/12/22 01:37:06;;;;;;;49.03;12.20;;;;;;;-1.61;69.25;102090.47;687059;28;1174;-84
2021/12/22 01:37:27;;;;;;;51.67;11.65;;;;;;;-1.71;69.28;102078.41;689622;28;1138;-83
2021/12/22 01:37:48;;;;;;;55.13;12.00;;;;;;;-1.60;69.03;102102.53;682248;29;1262;-84
2021/12/22 01:38:10;;;;;;;48.97;12.07;;;;;;;-1.61;69.45;102093.91;682182;28;1071;-84
2021/12/22 01:38:31;;;;;;;44.83;11.90;;;;;;;-1.68;69.12;102079.63;687967;28;1242;-84
2021/12/22 01:38:51;;;;;;;42.17;11.40;;;;;;;-1.61;69.47;102090.47;685091;28;807;-84
2021/12/22 01:39:12;;;;;;;32.40;10.80;;;;;;;-1.59;69.14;102086.41;683406;28;1090;-84
2021/12/22 01:39:32;;;;;;;30.42;10.50;;;;;;;-1.67;69.21;102078.88;682172;29;1275;-84
2021/12/22 01:39:53;;;;;;;29.25;10.27;;;;;;;-1.60;69.05;102087.16;682592;28;940;-84
2021/12/22 01:40:15;;;;;;;25.73;10.73;;;;;;;-1.55;69.10;102099.66;686856;28;1233;-84
2021/12/22 01:40:40;;;;;;;26.90;11.10;;;;;;;-1.55;69.10;102098.78;683992;28;1448;-84
2021/12/22 01:41:01;;;;;;;30.83;11.60;;;;;;;-1.54;69.16;102090.31;685228;28;1346;-84
2021/12/22 01:41:22;;;;;;;31.77;11.07;;;;;;;-1.51;69.16;102099.97;685287;28;831;-83
2021/12/22 01:41:44;;;;;;;28.27;10.68;;;;;;;-1.54;68.98;102093.78;685367;28;878;-84
2021/12/22 01:42:05;;;;;;;28.27;10.90;;;;;;;-1.59;69.13;102087.31;685398;28;1861;-84
2021/12/22 01:42:27;;;;;;;31.73;12.02;;;;;;;-1.55;68.69;102094.53;684809;28;1159;-84
2021/12/22 01:42:49;;;;;;;28.48;11.30;;;;;;;-1.61;68.84;102083.69;685046;28;1244;-84
2021/12/22 01:43:11;;;;;;;27.20;10.45;;;;;;;-1.61;68.76;102082.78;682497;29;1378;-84